Cloud Crest Hills, Indiana
Current Conditions -  °F | °C
As of 10:15 AM on Monday 24 Nov 2014 (Local Time) from K1II Reporting Station
Overcast Overcast  
Wind Chill: 37°   Ceiling: 1300
Heat Index: 45°   Visibility: 10mi
Dew Point: 41°   Wind: 17mph
Humidity: 87%   Direction: 250°WSW
Pressure: 29.43"   Gusts: 33mph
Location:  39.193°N, 86.2182°W
Report Text: K1II 241515Z AUTO 25015G29KT 10SM OVC013 07/05 A2943 RMK AO2
Loading
Personal Weather Stations






























Interactive Weather Map New forecast layout! Learn more

10-Day Weather Forecast

Advertisements
Track Severe Weather on mobile